Princeton, Missouri
Current Conditions -  °F | °C
As of 12:53 AM on Saturday 29 Nov 2014 (Local Time) from KLWD Reporting Station
Clear Clear  
Wind Chill: 32°   Ceiling: Unl
Heat Index: 39°   Visibility: 10mi
Dew Point: 33°   Wind: 10mph
Humidity: 79%   Direction: 190°S
Pressure: 29.63"   Gusts: NA
Location:  40.4°N, 93.58°W
Report Text: KLWD 290653Z AUTO 19009KT 10SM CLR 04/01 A2963 RMK AO2 SLP040 T00390006
Loading
Personal Weather Stations






























Interactive Weather Map New forecast layout! Learn more

10-Day Weather Forecast

Advertisements
Track Severe Weather on mobile